sensor_id;sensor_type;location;lat;lon;timestamp;pressure;altitude;pressure_sealevel;temperature;humidity
4398;BME280;2213;49.720;7.296;2023-09-12T00:01:18;97785.03;;;20.71;100.00
4398;BME280;2213;49.720;7.296;2023-09-12T00:03:47;97785.03;;;20.71;100.00
4398;BME280;2213;49.720;7.296;2023-09-12T00:06:19;97779.94;;;20.64;100.00
4398;BME280;2213;49.720;7.296;2023-09-12T00:08:50;97777.53;;;20.57;100.00
4398;BME280;2213;49.720;7.296;2023-09-12T00:11:20;97771.38;;;20.52;100.00
4398;BME280;2213;49.720;7.296;2023-09-12T00:13:55;97774.31;;;20.50;100.00
4398;BME280;2213;49.720;7.296;2023-09-12T00:16:26;97764.72;;;20.49;100.00
4398;BME280;2213;49.720;7.296;2023-09-12T00:18:56;97759.44;;;20.54;100.00
4398;BME280;2213;49.720;7.296;2023-09-12T00:21:28;97749.88;;;20.58;100.00
4398;BME280;2213;49.720;7.296;2023-09-12T00:23:59;97758.41;;;20.61;100.00
4398;BME280;2213;49.720;7.296;2023-09-12T00:26:29;97748.81;;;20.59;100.00
4398;BME280;2213;49.720;7.296;2023-09-12T00:29:00;97742.97;;;20.57;100.00
4398;BME280;2213;49.720;7.296;2023-09-12T00:31:30;97742.19;;;20.57;100.00
4398;BME280;2213;49.720;7.296;2023-09-12T00:33:59;97744.56;;;20.58;100.00
4398;BME280;2213;49.720;7.296;2023-09-12T00:36:31;97743.50;;;20.54;100.00
4398;BME280;2213;49.720;7.296;2023-09-12T00:39:00;97744.50;;;20.48;100.00
4398;BME280;2213;49.720;7.296;2023-09-12T00:41:31;97733.88;;;20.48;100.00
4398;BME280;2213;49.720;7.296;2023-09-12T00:44:01;97733.09;;;20.48;100.00
4398;BME280;2213;49.720;7.296;2023-09-12T00:46:32;97725.94;;;20.53;100.00
4398;BME280;2213;49.720;7.296;2023-09-12T00:49:03;97727.84;;;20.58;100.00
4398;BME280;2213;49.720;7.296;2023-09-12T00:51:36;97721.72;;;20.57;100.00
4398;BME280;2213;49.720;7.296;2023-09-12T00:54:07;97720.63;;;20.53;100.00
4398;BME280;2213;49.720;7.296;2023-09-12T00:56:38;97717.94;;;20.48;100.00
4398;BME280;2213;49.720;7.296;2023-09-12T00:59:11;97716.84;;;20.44;100.00
4398;BME280;2213;49.720;7.296;2023-09-12T01:01:41;97716.84;;;20.44;100.00
4398;BME280;2213;49.720;7.296;2023-09-12T01:04:12;97718.44;;;20.40;100.00
4398;BME280;2213;49.720;7.296;2023-09-12T01:07:03;97729.03;;;20.35;100.00
4398;BME280;2213;49.720;7.296;2023-09-12T01:09:33;97715.25;;;20.38;100.00
4398;BME280;2213;49.720;7.296;2023-09-12T01:12:06;97718.69;;;20.39;100.00
4398;BME280;2213;49.720;7.296;2023-09-12T01:14:36;97721.63;;;20.42;100.00
4398;BME280;2213;49.720;7.296;2023-09-12T01:17:06;97723.22;;;20.38;100.00
4398;BME280;2213;49.720;7.296;2023-09-12T01:19:35;97726.94;;;20.37;100.00
4398;BME280;2213;49.720;7.296;2023-09-12T01:22:33;97729.56;;;20.32;100.00
4398;BME280;2213;49.720;7.296;2023-09-12T01:25:42;97727.16;;;20.31;100.00
4398;BME280;2213;49.720;7.296;2023-09-12T01:28:22;97739.94;;;20.34;100.00
4398;BME280;2213;49.720;7.296;2023-09-12T01:30:53;97731.16;;;20.33;100.00
4398;BME280;2213;49.720;7.296;2023-09-12T01:33:23;97730.88;;;20.35;100.00
4398;BME280;2213;49.720;7.296;2023-09-12T01:35:53;97714.94;;;20.35;100.00
4398;BME280;2213;49.720;7.296;2023-09-12T01:38:22;97714.13;;;20.29;100.00
4398;BME280;2213;49.720;7.296;2023-09-12T01:40:54;97715.44;;;20.27;100.00
4398;BME280;2213;49.720;7.296;2023-09-12T01:43:27;97719.38;;;20.19;100.00
4398;BME280;2213;49.720;7.296;2023-09-12T01:46:00;97721.44;;;20.12;100.00
4398;BME280;2213;49.720;7.296;2023-09-12T01:48:35;97711.88;;;20.11;100.00
4398;BME280;2213;49.720;7.296;2023-09-12T01:51:07;97701.75;;;20.08;100.00
4398;BME280;2213;49.720;7.296;2023-09-12T01:53:36;97704.41;;;20.08;100.00
4398;BME280;2213;49.720;7.296;2023-09-12T01:56:08;97701.19;;;20.01;100.00
4398;BME280;2213;49.720;7.296;2023-09-12T01:58:40;97706.44;;;19.96;100.00
4398;BME280;2213;49.720;7.296;2023-09-12T02:01:11;97701.41;;;19.94;100.00
4398;BME280;2213;49.720;7.296;2023-09-12T02:03:41;97704.88;;;19.95;100.00
4398;BME280;2213;49.720;7.296;2023-09-12T02:06:11;97708.03;;;19.92;100.00
4398;BME280;2213;49.720;7.296;2023-09-12T02:08:42;97707.22;;;19.91;100.00
4398;BME280;2213;49.720;7.296;2023-09-12T02:11:13;97700.06;;;19.92;100.00
4398;BME280;2213;49.720;7.296;2023-09-12T02:13:44;97696.56;;;19.86;100.00
4398;BME280;2213;49.720;7.296;2023-09-12T02:16:15;97701.28;;;19.79;100.00
4398;BME280;2213;49.720;7.296;2023-09-12T02:18:45;97694.34;;;19.73;100.00
4398;BME280;2213;49.720;7.296;2023-09-12T02:21:14;97700.16;;;19.70;100.00
4398;BME280;2213;49.720;7.296;2023-09-12T02:23:45;97697.47;;;19.65;100.00
4398;BME280;2213;49.720;7.296;2023-09-12T02:26:16;97691.34;;;19.65;100.00
4398;BME280;2213;49.720;7.296;2023-09-12T02:28:47;97695.88;;;19.64;100.00
4398;BME280;2213;49.720;7.296;2023-09-12T02:31:17;97691.41;;;19.70;100.00
4398;BME280;2213;49.720;7.296;2023-09-12T02:33:49;97698.81;;;19.68;100.00
4398;BME280;2213;49.720;7.296;2023-09-12T02:36:19;97694.28;;;19.63;100.00
4398;BME280;2213;49.720;7.296;2023-09-12T02:38:50;97697.16;;;19.62;100.00
4398;BME280;2213;49.720;7.296;2023-09-12T02:41:20;97692.94;;;19.61;100.00
4398;BME280;2213;49.720;7.296;2023-09-12T02:43:52;97692.38;;;19.58;100.00
4398;BME280;2213;49.720;7.296;2023-09-12T02:46:23;97691.84;;;19.56;100.00
4398;BME280;2213;49.720;7.296;2023-09-12T02:48:53;97692.63;;;19.57;100.00
4398;BME280;2213;49.720;7.296;2023-09-12T02:51:24;97692.94;;;19.61;100.00
4398;BME280;2213;49.720;7.296;2023-09-12T02:53:55;97692.94;;;19.61;100.00
4398;BME280;2213;49.720;7.296;2023-09-12T02:56:26;97691.31;;;19.59;100.00
4398;BME280;2213;49.720;7.296;2023-09-12T02:58:58;97696.09;;;19.57;100.00
4398;BME280;2213;49.720;7.296;2023-09-12T03:01:27;97700.84;;;19.55;100.00
4398;BME280;2213;49.720;7.296;2023-09-12T03:03:57;97689.41;;;19.55;100.00
4398;BME280;2213;49.720;7.296;2023-09-12T03:06:28;97693.16;;;19.54;100.00
4398;BME280;2213;49.720;7.296;2023-09-12T03:08:59;97687.03;;;19.53;100.00
4398;BME280;2213;49.720;7.296;2023-09-12T03:11:28;97693.91;;;19.54;100.00
4398;BME280;2213;49.720;7.296;2023-09-12T03:14:01;97685.44;;;19.52;100.00
4398;BME280;2213;49.720;7.296;2023-09-12T03:16:32;97689.41;;;19.50;100.00
4398;BME280;2213;49.720;7.296;2023-09-12T03:19:02;97688.59;;;19.49;100.00
4398;BME280;2213;49.720;7.296;2023-09-12T03:21:32;97680.88;;;19.48;100.00
4398;BME280;2213;49.720;7.296;2023-09-12T03:24:03;97687.50;;;19.45;100.00
4398;BME280;2213;49.720;7.296;2023-09-12T03:26:35;97679.28;;;19.47;100.00
4398;BME280;2213;49.720;7.296;2023-09-12T03:29:06;97686.75;;;19.50;100.00
4398;BME280;2213;49.720;7.296;2023-09-12T03:31:36;97683.00;;;19.51;100.00
4398;BME280;2213;49.720;7.296;2023-09-12T03:34:06;97680.34;;;19.46;100.00
4398;BME280;2213;49.720;7.296;2023-09-12T03:36:35;97688.81;;;19.43;100.00
4398;BME280;2213;49.720;7.296;2023-09-12T03:39:07;97682.94;;;19.41;100.00
4398;BME280;2213;49.720;7.296;2023-09-12T03:41:37;97685.88;;;19.44;100.00
4398;BME280;2213;49.720;7.296;2023-09-12T03:44:07;97690.38;;;19.44;100.00
4398;BME280;2213;49.720;7.296;2023-09-12T03:46:38;97691.69;;;19.41;100.00
4398;BME280;2213;49.720;7.296;2023-09-12T03:49:09;97690.88;;;19.41;100.00
4398;BME280;2213;49.720;7.296;2023-09-12T03:51:39;97698.59;;;19.42;100.00
4398;BME280;2213;49.720;7.296;2023-09-12T03:54:10;97695.69;;;19.44;100.00
4398;BME280;2213;49.720;7.296;2023-09-12T03:56:40;97696.19;;;19.41;100.00
4398;BME280;2213;49.720;7.296;2023-09-12T03:59:14;97691.69;;;19.41;100.00
4398;BME280;2213;49.720;7.296;2023-09-12T04:01:44;97682.69;;;19.42;100.00
4398;BME280;2213;49.720;7.296;2023-09-12T04:04:16;97681.09;;;19.41;100.00
4398;BME280;2213;49.720;7.296;2023-09-12T04:06:45;97683.97;;;19.40;100.00
4398;BME280;2213;49.720;7.296;2023-09-12T04:09:15;97680.50;;;19.39;100.00
4398;BME280;2213;49.720;7.296;2023-09-12T04:11:45;97675.16;;;19.34;100.00
4398;BME280;2213;49.720;7.296;2023-09-12T04:14:18;97676.16;;;19.28;100.00
4398;BME280;2213;49.720;7.296;2023-09-12T04:16:48;97679.56;;;19.24;100.00
4398;BME280;2213;49.720;7.296;2023-09-12T04:19:18;97683.00;;;19.19;100.00
4398;BME280;2213;49.720;7.296;2023-09-12T04:21:48;97675.81;;;19.20;100.00
4398;BME280;2213;49.720;7.296;2023-09-12T04:24:19;97674.25;;;19.24;100.00
4398;BME280;2213;49.720;7.296;2023-09-12T04:26:49;97661.56;;;19.26;100.00
4398;BME280;2213;49.720;7.296;2023-09-12T04:29:20;97668.66;;;19.20;100.00
4398;BME280;2213;49.720;7.296;2023-09-12T04:31:50;97667.31;;;19.18;100.00
4398;BME280;2213;49.720;7.296;2023-09-12T04:34:27;97659.59;;;19.16;100.00
4398;BME280;2213;49.720;7.296;2023-09-12T04:36:57;97657.16;;;19.09;100.00
4398;BME280;2213;49.720;7.296;2023-09-12T04:39:26;97670.91;;;19.06;100.00
4398;BME280;2213;49.720;7.296;2023-09-12T04:41:56;97664.28;;;19.04;100.00
4398;BME280;2213;49.720;7.296;2023-09-12T04:44:27;97667.66;;;18.99;100.00
4398;BME280;2213;49.720;7.296;2023-09-12T04:46:57;97663.66;;;18.97;100.00
4398;BME280;2213;49.720;7.296;2023-09-12T04:49:27;97663.56;;;18.87;100.00
4398;BME280;2213;49.720;7.296;2023-09-12T04:51:57;97679.41;;;18.82;100.00
4398;BME280;2213;49.720;7.296;2023-09-12T04:54:27;97676.75;;;18.82;100.00
4398;BME280;2213;49.720;7.296;2023-09-12T04:56:57;97681.56;;;18.85;100.00
4398;BME280;2213;49.720;7.296;2023-09-12T04:59:28;97668.75;;;18.77;100.00
4398;BME280;2213;49.720;7.296;2023-09-12T05:01:57;97666.66;;;18.79;100.00
4398;BME280;2213;49.720;7.296;2023-09-12T05:04:26;97666.72;;;18.84;100.00
4398;BME280;2213;49.720;7.296;2023-09-12T05:06:57;97672.56;;;18.86;100.00
4398;BME280;2213;49.720;7.296;2023-09-12T05:09:27;97682.13;;;18.87;100.00
4398;BME280;2213;49.720;7.296;2023-09-12T05:11:57;97684.97;;;18.80;100.00
4398;BME280;2213;49.720;7.296;2023-09-12T05:14:29;97688.91;;;18.78;100.00
4398;BME280;2213;49.720;7.296;2023-09-12T05:17:02;97684.16;;;18.80;100.00
4398;BME280;2213;49.720;7.296;2023-09-12T05:19:31;97675.66;;;18.78;100.00
4398;BME280;2213;49.720;7.296;2023-09-12T05:22:01;97680.66;;;18.74;100.00
4398;BME280;2213;49.720;7.296;2023-09-12T05:24:31;97681.94;;;18.72;100.00
4398;BME280;2213;49.720;7.296;2023-09-12T05:27:01;97692.00;;;18.70;100.00
4398;BME280;2213;49.720;7.296;2023-09-12T05:29:35;97680.59;;;18.69;100.00
4398;BME280;2213;49.720;7.296;2023-09-12T05:32:05;97690.16;;;18.70;100.00
4398;BME280;2213;49.720;7.296;2023-09-12T05:34:36;97691.72;;;18.71;100.00
4398;BME280;2213;49.720;7.296;2023-09-12T05:37:07;97687.22;;;18.72;100.00
4398;BME280;2213;49.720;7.296;2023-09-12T05:39:36;97689.84;;;18.67;100.00
4398;BME280;2213;49.720;7.296;2023-09-12T05:42:07;97693.53;;;18.66;100.00
4398;BME280;2213;49.720;7.296;2023-09-12T05:44:39;97698.75;;;18.60;100.00
4398;BME280;2213;49.720;7.296;2023-09-12T05:47:11;97690.75;;;18.55;100.00
4398;BME280;2213;49.720;7.296;2023-09-12T05:49:41;97695.78;;;18.57;100.00
4398;BME280;2213;49.720;7.296;2023-09-12T05:52:10;97697.22;;;18.65;100.00
4398;BME280;2213;49.720;7.296;2023-09-12T05:54:41;97690.66;;;18.67;100.00
4398;BME280;2213;49.720;7.296;2023-09-12T05:57:12;97690.38;;;18.69;100.00
4398;BME280;2213;49.720;7.296;2023-09-12T05:59:43;97698.34;;;18.69;100.00
4398;BME280;2213;49.720;7.296;2023-09-12T06:02:14;97699.44;;;18.73;100.00
4398;BME280;2213;49.720;7.296;2023-09-12T06:04:43;97702.81;;;18.68;100.00
4398;BME280;2213;49.720;7.296;2023-09-12T06:07:13;97703.63;;;18.69;100.00
4398;BME280;2213;49.720;7.296;2023-09-12T06:09:43;97704.66;;;18.68;100.00
4398;BME280;2213;49.720;7.296;2023-09-12T06:12:13;97708.13;;;18.68;100.00
4398;BME280;2213;49.720;7.296;2023-09-12T06:14:43;97706.84;;;18.71;100.00
4398;BME280;2213;49.720;7.296;2023-09-12T06:17:13;97702.91;;;18.73;100.00
4398;BME280;2213;49.720;7.296;2023-09-12T06:19:42;97711.69;;;18.79;100.00
4398;BME280;2213;49.720;7.296;2023-09-12T06:22:12;97708.53;;;18.82;100.00
4398;BME280;2213;49.720;7.296;2023-09-12T06:24:43;97712.00;;;18.82;100.00
4398;BME280;2213;49.720;7.296;2023-09-12T06:27:13;97709.34;;;18.82;100.00
4398;BME280;2213;49.720;7.296;2023-09-12T06:29:48;97700.09;;;18.85;100.00
4398;BME280;2213;49.720;7.296;2023-09-12T06:32:18;97695.38;;;18.87;100.00
4398;BME280;2213;49.720;7.296;2023-09-12T06:34:48;97697.28;;;18.91;100.00
4398;BME280;2213;49.720;7.296;2023-09-12T06:37:19;97706.56;;;18.94;100.00
4398;BME280;2213;49.720;7.296;2023-09-12T06:39:50;97707.69;;;18.98;100.00
4398;BME280;2213;49.720;7.296;2023-09-12T06:42:19;97711.91;;;18.99;100.00
4398;BME280;2213;49.720;7.296;2023-09-12T06:44:50;97717.47;;;18.97;100.00
4398;BME280;2213;49.720;7.296;2023-09-12T06:47:21;97713.50;;;18.95;100.00
4398;BME280;2213;49.720;7.296;2023-09-12T06:49:51;97716.69;;;18.97;100.00
4398;BME280;2213;49.720;7.296;2023-09-12T06:52:23;97717.78;;;19.01;100.00
4398;BME280;2213;49.720;7.296;2023-09-12T06:54:53;97715.69;;;19.03;100.00
4398;BME280;2213;49.720;7.296;2023-09-12T06:57:23;97720.47;;;19.06;100.00
4398;BME280;2213;49.720;7.296;2023-09-12T06:59:55;97722.63;;;19.09;100.00
4398;BME280;2213;49.720;7.296;2023-09-12T07:02:27;97729.59;;;19.15;100.00
4398;BME280;2213;49.720;7.296;2023-09-12T07:04:58;97714.81;;;19.19;100.00
4398;BME280;2213;49.720;7.296;2023-09-12T07:07:28;97710.84;;;19.22;100.00
4398;BME280;2213;49.720;7.296;2023-09-12T07:09:59;97717.78;;;19.28;100.00
4398;BME280;2213;49.720;7.296;2023-09-12T07:12:50;97718.91;;;19.32;100.00
4398;BME280;2213;49.720;7.296;2023-09-12T07:15:21;97715.97;;;19.33;100.00
4398;BME280;2213;49.720;7.296;2023-09-12T07:17:52;97717.59;;;19.34;100.00
4398;BME280;2213;49.720;7.296;2023-09-12T07:20:22;97718.63;;;19.33;100.00
4398;BME280;2213;49.720;7.296;2023-09-12T07:22:54;97718.38;;;19.35;100.00
4398;BME280;2213;49.720;7.296;2023-09-12T07:25:24;97712.59;;;19.38;100.00
4398;BME280;2213;49.720;7.296;2023-09-12T07:27:55;97703.91;;;19.42;100.00
4398;BME280;2213;49.720;7.296;2023-09-12T07:30:26;97701.28;;;19.47;100.00
4398;BME280;2213;49.720;7.296;2023-09-12T07:32:57;97698.16;;;19.50;100.00
4398;BME280;2213;49.720;7.296;2023-09-12T07:35:28;97702.69;;;19.55;100.00
4398;BME280;2213;49.720;7.296;2023-09-12T07:38:00;97711.50;;;19.61;100.00
4398;BME280;2213;49.720;7.296;2023-09-12T07:40:31;97708.34;;;19.64;100.00
4398;BME280;2213;49.720;7.296;2023-09-12T07:43:01;97712.09;;;19.68;100.00
4398;BME280;2213;49.720;7.296;2023-09-12T07:45:33;97715.81;;;19.72;100.00
4398;BME280;2213;49.720;7.296;2023-09-12T07:48:07;97707.91;;;19.77;100.00
4398;BME280;2213;49.720;7.296;2023-09-12T07:50:37;97710.63;;;19.82;100.00
4398;BME280;2213;49.720;7.296;2023-09-12T07:53:07;97709.03;;;19.86;100.00
4398;BME280;2213;49.720;7.296;2023-09-12T07:55:39;97713.34;;;19.92;100.00
4398;BME280;2213;49.720;7.296;2023-09-12T07:58:14;97718.94;;;19.95;100.00
4398;BME280;2213;49.720;7.296;2023-09-12T08:00:48;97719.72;;;19.96;100.00
4398;BME280;2213;49.720;7.296;2023-09-12T08:03:19;97708.63;;;20.04;100.00
4398;BME280;2213;49.720;7.296;2023-09-12T08:05:55;97710.78;;;20.07;100.00
4398;BME280;2213;49.720;7.296;2023-09-12T08:08:24;97719.59;;;20.13;100.00
4398;BME280;2213;49.720;7.296;2023-09-12T08:10:55;97724.09;;;20.17;100.00
4398;BME280;2213;49.720;7.296;2023-09-12T08:13:27;97729.19;;;20.24;100.00
4398;BME280;2213;49.720;7.296;2023-09-12T08:16:00;97731.69;;;20.30;100.00
4398;BME280;2213;49.720;7.296;2023-09-12T08:18:31;97729.84;;;20.36;100.00
4398;BME280;2213;49.720;7.296;2023-09-12T08:21:01;97726.44;;;20.40;100.00
4398;BME280;2213;49.720;7.296;2023-09-12T08:23:31;97729.09;;;20.45;100.00
4398;BME280;2213;49.720;7.296;2023-09-12T08:26:01;97725.16;;;20.53;100.00
4398;BME280;2213;49.720;7.296;2023-09-12T08:28:32;97733.94;;;20.58;100.00
4398;BME280;2213;49.720;7.296;2023-09-12T08:31:04;97739.03;;;20.65;100.00
4398;BME280;2213;49.720;7.296;2023-09-12T08:33:33;97733.72;;;20.70;100.00
4398;BME280;2213;49.720;7.296;2023-09-12T08:36:05;97734.53;;;20.76;100.00
4398;BME280;2213;49.720;7.296;2023-09-12T08:38:35;97726.34;;;20.82;100.00
4398;BME280;2213;49.720;7.296;2023-09-12T08:41:07;97725.56;;;20.87;100.00
4398;BME280;2213;49.720;7.296;2023-09-12T08:43:37;97722.94;;;20.92;100.00
4398;BME280;2213;49.720;7.296;2023-09-12T08:46:10;97718.16;;;20.99;100.00
4398;BME280;2213;49.720;7.296;2023-09-12T08:48:42;97716.31;;;21.04;100.00
4398;BME280;2213;49.720;7.296;2023-09-12T08:51:14;97719.81;;;21.10;100.00
4398;BME280;2213;49.720;7.296;2023-09-12T08:53:44;97722.47;;;21.15;100.00
4398;BME280;2213;49.720;7.296;2023-09-12T08:56:14;97715.59;;;21.19;100.00
4398;BME280;2213;49.720;7.296;2023-09-12T08:58:45;97717.19;;;21.25;100.00
4398;BME280;2213;49.720;7.296;2023-09-12T09:01:18;97719.88;;;21.30;100.00
4398;BME280;2213;49.720;7.296;2023-09-12T09:03:49;97728.94;;;21.34;100.00
4398;BME280;2213;49.720;7.296;2023-09-12T09:06:22;97731.56;;;21.39;100.00
4398;BME280;2213;49.720;7.296;2023-09-12T09:08:52;97735.31;;;21.43;100.00
4398;BME280;2213;49.720;7.296;2023-09-12T09:11:24;97725.47;;;21.49;100.00
4398;BME280;2213;49.720;7.296;2023-09-12T09:13:56;97730.81;;;21.54;100.00
4398;BME280;2213;49.720;7.296;2023-09-12T09:16:28;97722.03;;;21.58;100.00
4398;BME280;2213;49.720;7.296;2023-09-12T09:19:01;97727.34;;;21.64;100.00
4398;BME280;2213;49.720;7.296;2023-09-12T09:21:33;97722.84;;;21.69;100.00
4398;BME280;2213;49.720;7.296;2023-09-12T09:24:07;97724.69;;;21.74;100.00
4398;BME280;2213;49.720;7.296;2023-09-12T09:26:44;97716.16;;;21.82;100.00
4398;BME280;2213;49.720;7.296;2023-09-12T09:29:16;97718.81;;;21.87;100.00
4398;BME280;2213;49.720;7.296;2023-09-12T09:31:50;97713.53;;;21.92;100.00
4398;BME280;2213;49.720;7.296;2023-09-12T09:34:21;97713.78;;;21.95;100.00
4398;BME280;2213;49.720;7.296;2023-09-12T09:36:54;97714.56;;;22.01;100.00
4398;BME280;2213;49.720;7.296;2023-09-12T09:39:26;97713.53;;;22.07;100.00
4398;BME280;2213;49.720;7.296;2023-09-12T09:41:57;97711.38;;;22.14;100.00
4398;BME280;2213;49.720;7.296;2023-09-12T09:44:27;97716.16;;;22.22;100.00
4398;BME280;2213;49.720;7.296;2023-09-12T09:47:01;97719.88;;;22.31;100.00
4398;BME280;2213;49.720;7.296;2023-09-12T09:49:34;97714.78;;;22.40;100.00
4398;BME280;2213;49.720;7.296;2023-09-12T09:52:05;97713.69;;;22.51;100.00
4398;BME280;2213;49.720;7.296;2023-09-12T09:54:34;97715.25;;;22.62;100.00
4398;BME280;2213;49.720;7.296;2023-09-12T09:57:06;97711.78;;;22.72;100.00
4398;BME280;2213;49.720;7.296;2023-09-12T09:59:37;97715.44;;;22.81;100.00
4398;BME280;2213;49.720;7.296;2023-09-12T10:02:16;97723.41;;;22.91;100.00
4398;BME280;2213;49.720;7.296;2023-09-12T10:04:54;97718.81;;;23.01;100.00
4398;BME280;2213;49.720;7.296;2023-09-12T10:07:31;97710.25;;;23.10;100.00
4398;BME280;2213;49.720;7.296;2023-09-12T10:10:03;97721.66;;;23.20;100.00
4398;BME280;2213;49.720;7.296;2023-09-12T10:12:34;97718.41;;;23.28;100.00
4398;BME280;2213;49.720;7.296;2023-09-12T10:15:07;97719.97;;;23.34;100.00
4398;BME280;2213;49.720;7.296;2023-09-12T10:17:42;97717.03;;;23.41;100.00
4398;BME280;2213;49.720;7.296;2023-09-12T10:20:20;97714.84;;;23.48;100.00
4398;BME280;2213;49.720;7.296;2023-09-12T10:23:03;97718.56;;;23.52;100.00
4398;BME280;2213;49.720;7.296;2023-09-12T10:25:38;97713.47;;;23.55;100.00
4398;BME280;2213;49.720;7.296;2023-09-12T10:28:09;97714.50;;;23.60;100.00
4398;BME280;2213;49.720;7.296;2023-09-12T10:30:40;97717.13;;;23.65;100.00
4398;BME280;2213;49.720;7.296;2023-09-12T10:33:14;97708.53;;;23.68;100.00
4398;BME280;2213;49.720;7.296;2023-09-12T10:35:48;97715.47;;;23.74;100.00
4398;BME280;2213;49.720;7.296;2023-09-12T10:38:21;97717.50;;;23.82;100.00
4398;BME280;2213;49.720;7.296;2023-09-12T10:40:55;97710.25;;;23.87;100.00
4398;BME280;2213;49.720;7.296;2023-09-12T10:43:26;97717.38;;;23.97;100.00
4398;BME280;2213;49.720;7.296;2023-09-12T10:46:00;97711.44;;;24.05;100.00
4398;BME280;2213;49.720;7.296;2023-09-12T10:48:36;97712.97;;;24.11;100.00
4398;BME280;2213;49.720;7.296;2023-09-12T10:51:10;97715.59;;;24.21;100.00
4398;BME280;2213;49.720;7.296;2023-09-12T10:53:46;97715.25;;;24.28;100.00
4398;BME280;2213;49.720;7.296;2023-09-12T10:56:20;97719.44;;;24.34;100.00
4398;BME280;2213;49.720;7.296;2023-09-12T10:59:14;97712.19;;;24.39;100.00
4398;BME280;2213;49.720;7.296;2023-09-12T11:01:43;97717.19;;;24.46;100.00
4398;BME280;2213;49.720;7.296;2023-09-12T11:04:34;97709.91;;;24.51;100.00
4398;BME280;2213;49.720;7.296;2023-09-12T11:07:43;97711.16;;;24.59;100.00
4398;BME280;2213;49.720;7.296;2023-09-12T11:10:21;97705.47;;;24.66;100.00
4398;BME280;2213;49.720;7.296;2023-09-12T11:12:53;97701.63;;;24.72;100.00
4398;BME280;2213;49.720;7.296;2023-09-12T11:15:26;97695.44;;;24.76;100.00
4398;BME280;2213;49.720;7.296;2023-09-12T11:18:04;97696.25;;;24.77;100.00
4398;BME280;2213;49.720;7.296;2023-09-12T11:20:53;97697.25;;;24.81;100.00
4398;BME280;2213;49.720;7.296;2023-09-12T11:23:28;97697.22;;;24.86;100.00
4398;BME280;2213;49.720;7.296;2023-09-12T11:26:06;97692.66;;;24.86;100.00
4398;BME280;2213;49.720;7.296;2023-09-12T11:28:36;97698.22;;;24.90;100.00
4398;BME280;2213;49.720;7.296;2023-09-12T11:31:07;97691.22;;;24.94;100.00
4398;BME280;2213;49.720;7.296;2023-09-12T11:33:36;97694.41;;;24.96;100.00
4398;BME280;2213;49.720;7.296;2023-09-12T11:36:15;97692.25;;;24.98;100.00
4398;BME280;2213;49.720;7.296;2023-09-12T11:38:49;97695.41;;;25.00;100.00
4398;BME280;2213;49.720;7.296;2023-09-12T11:41:40;97693.28;;;25.02;100.00
4398;BME280;2213;49.720;7.296;2023-09-12T11:44:10;97692.97;;;25.03;100.00
4398;BME280;2213;49.720;7.296;2023-09-12T11:46:41;97692.38;;;25.07;100.00
4398;BME280;2213;49.720;7.296;2023-09-12T11:49:11;97694.69;;;25.13;100.00
4398;BME280;2213;49.720;7.296;2023-09-12T11:51:48;97691.47;;;25.16;100.00
4398;BME280;2213;49.720;7.296;2023-09-12T11:54:20;97689.78;;;25.20;100.00
4398;BME280;2213;49.720;7.296;2023-09-12T11:56:50;97686.25;;;25.25;100.00
4398;BME280;2213;49.720;7.296;2023-09-12T11:59:24;97689.44;;;25.27;100.00
4398;BME280;2213;49.720;7.296;2023-09-12T12:01:54;97691.81;;;25.28;100.00
4398;BME280;2213;49.720;7.296;2023-09-12T12:04:25;97686.19;;;25.30;100.00
4398;BME280;2213;49.720;7.296;2023-09-12T12:06:57;97679.94;;;25.34;100.00
4398;BME280;2213;49.720;7.296;2023-09-12T12:09:26;97679.94;;;25.34;100.00
4398;BME280;2213;49.720;7.296;2023-09-12T12:11:55;97675.59;;;25.38;100.00
4398;BME280;2213;49.720;7.296;2023-09-12T12:14:33;97676.59;;;25.42;100.00
4398;BME280;2213;49.720;7.296;2023-09-12T12:17:09;97674.16;;;25.46;100.00
4398;BME280;2213;49.720;7.296;2023-09-12T12:19:45;97681.34;;;25.50;100.00
4398;BME280;2213;49.720;7.296;2023-09-12T12:22:16;97680.44;;;25.55;100.00
4398;BME280;2213;49.720;7.296;2023-09-12T12:24:47;97670.75;;;25.59;100.00
4398;BME280;2213;49.720;7.296;2023-09-12T12:27:18;97671.47;;;25.65;100.00
4398;BME280;2213;49.720;7.296;2023-09-12T12:29:49;97673.97;;;25.75;100.00
4398;BME280;2213;49.720;7.296;2023-09-12T12:32:20;97669.63;;;25.79;100.00
4398;BME280;2213;49.720;7.296;2023-09-12T12:34:50;97663.56;;;25.87;100.00
4398;BME280;2213;49.720;7.296;2023-09-12T12:37:42;97665.66;;;25.90;100.00
4398;BME280;2213;49.720;7.296;2023-09-12T12:40:17;97656.25;;;25.92;100.00
4398;BME280;2213;49.720;7.296;2023-09-12T12:42:48;97666.88;;;25.97;100.00
4398;BME280;2213;49.720;7.296;2023-09-12T12:45:23;97661.13;;;26.04;100.00
4398;BME280;2213;49.720;7.296;2023-09-12T12:47:59;97660.53;;;26.07;100.00
4398;BME280;2213;49.720;7.296;2023-09-12T12:50:28;97656.69;;;26.13;100.00
4398;BME280;2213;49.720;7.296;2023-09-12T12:52:59;97651.34;;;26.27;100.00
4398;BME280;2213;49.720;7.296;2023-09-12T12:55:29;97647.19;;;26.34;100.00
4398;BME280;2213;49.720;7.296;2023-09-12T12:58:04;97650.44;;;26.45;100.00
4398;BME280;2213;49.720;7.296;2023-09-12T13:00:34;97653.72;;;26.56;96.71
4398;BME280;2213;49.720;7.296;2023-09-12T13:03:05;97652.41;;;26.67;95.03
4398;BME280;2213;49.720;7.296;2023-09-12T13:05:34;97651.81;;;26.70;93.80
4398;BME280;2213;49.720;7.296;2023-09-12T13:08:05;97653.00;;;26.77;94.20
4398;BME280;2213;49.720;7.296;2023-09-12T13:10:35;97645.94;;;26.81;94.85
4398;BME280;2213;49.720;7.296;2023-09-12T13:13:05;97636.50;;;26.84;96.76
4398;BME280;2213;49.720;7.296;2023-09-12T13:15:34;97635.91;;;26.87;98.12
4398;BME280;2213;49.720;7.296;2023-09-12T13:18:04;97631.50;;;26.91;99.29
4398;BME280;2213;49.720;7.296;2023-09-12T13:20:36;97640.28;;;26.96;98.85
4398;BME280;2213;49.720;7.296;2023-09-12T13:23:07;97626.72;;;27.01;98.43
4398;BME280;2213;49.720;7.296;2023-09-12T13:25:37;97624.72;;;27.07;97.96
4398;BME280;2213;49.720;7.296;2023-09-12T13:28:07;97621.91;;;27.12;89.70
4398;BME280;2213;49.720;7.296;2023-09-12T13:30:38;97619.31;;;27.21;90.26
4398;BME280;2213;49.720;7.296;2023-09-12T13:33:08;97614.13;;;27.24;90.76
4398;BME280;2213;49.720;7.296;2023-09-12T13:35:39;97614.53;;;27.40;90.13
4398;BME280;2213;49.720;7.296;2023-09-12T13:38:11;97610.06;;;27.49;87.03